Time;durP1;ratioP1;P1;durP2;ratioP2;P2;SDS_P1;SDS_P2;PMS_P1;PMS_P2;Temp;Humidity;BMP_temperature;BMP_pressure;BME280_temperature;BME280_humidity;BME280_pressure;Samples;Min_cycle;Max_cycle;Signal;HPM_P1;HPM_P2
2023/12/23 00:00:00;;;;;;;2.27;1.20;;;10.70;99.90;;;;;;5052696;28;20209;-64
2023/12/23 00:02:28;;;;;;;3.57;1.10;;;10.70;99.90;;;;;;5052932;28;20266;-65
2023/12/23 00:04:55;;;;;;;4.30;1.30;;;10.60;99.90;;;;;;5052271;28;20228;-64
2023/12/23 00:07:21;;;;;;;3.67;1.30;;;10.60;99.90;;;;;;5053113;28;20205;-65
2023/12/23 00:09:48;;;;;;;2.80;0.97;;;10.60;99.90;;;;;;5052625;28;20244;-64
2023/12/23 00:12:15;;;;;;;4.30;1.60;;;10.60;99.90;;;;;;5052719;28;20208;-65
2023/12/23 00:14:42;;;;;;;6.80;1.57;;;10.60;99.90;;;;;;5052707;28;20230;-64
2023/12/23 00:17:08;;;;;;;3.77;1.10;;;10.60;99.90;;;;;;5052415;28;20209;-64
2023/12/23 00:19:36;;;;;;;3.73;1.43;;;10.50;99.90;;;;;;5052930;28;20579;-64
2023/12/23 00:22:04;;;;;;;4.67;1.30;;;10.50;99.90;;;;;;5052333;28;20212;-65
2023/12/23 00:24:31;;;;;;;4.87;1.40;;;10.50;99.90;;;;;;5052491;28;20233;-65
2023/12/23 00:26:58;;;;;;;3.47;1.30;;;10.30;99.90;;;;;;5052085;28;20685;-64
2023/12/23 00:29:25;;;;;;;4.77;1.20;;;10.20;99.90;;;;;;5052043;28;20206;-64
2023/12/23 00:31:51;;;;;;;2.80;1.10;;;10.20;99.90;;;;;;5051161;28;20209;-64
2023/12/23 00:34:18;;;;;;;3.80;1.30;;;10.20;99.90;;;;;;5051849;28;20233;-64
2023/12/23 00:36:46;;;;;;;5.00;1.20;;;10.10;99.90;;;;;;5052381;28;20601;-64
2023/12/23 00:39:15;;;;;;;5.80;1.60;;;10.00;99.90;;;;;;5052028;28;20201;-66
2023/12/23 00:41:41;;;;;;;4.20;1.33;;;10.10;99.90;;;;;;5052012;28;20210;-64
2023/12/23 00:44:08;;;;;;;3.83;1.37;;;10.00;99.90;;;;;;5051649;28;20722;-65
2023/12/23 00:46:35;;;;;;;3.43;1.23;;;10.10;99.90;;;;;;5051904;28;20736;-64
2023/12/23 00:49:01;;;;;;;6.40;1.73;;;10.10;99.90;;;;;;5051707;28;20210;-65
2023/12/23 00:51:28;;;;;;;6.30;1.63;;;10.10;99.90;;;;;;5051692;28;20201;-64
2023/12/23 00:53:56;;;;;;;6.77;1.47;;;10.10;99.90;;;;;;5051615;28;20654;-64
2023/12/23 00:56:23;;;;;;;3.00;1.03;;;10.10;99.90;;;;;;5051770;28;20728;-64
2023/12/23 00:58:50;;;;;;;5.83;1.40;;;10.10;99.90;;;;;;5051576;28;20210;-65
2023/12/23 01:01:17;;;;;;;6.20;1.10;;;10.10;99.90;;;;;;5051560;28;20606;-65
2023/12/23 01:03:44;;;;;;;2.60;1.00;;;10.10;99.90;;;;;;5051789;28;20241;-64
2023/12/23 01:06:11;;;;;;;3.80;1.20;;;10.20;99.90;;;;;;5051513;28;20197;-64
2023/12/23 01:08:37;;;;;;;4.10;1.20;;;10.20;99.90;;;;;;5051648;28;20297;-64
2023/12/23 01:11:05;;;;;;;4.00;1.27;;;10.30;99.90;;;;;;5051226;28;20205;-64
2023/12/23 01:13:32;;;;;;;2.97;1.30;;;10.30;99.90;;;;;;5051671;28;20201;-64
2023/12/23 01:15:59;;;;;;;3.10;1.30;;;10.30;99.90;;;;;;5051158;28;20225;-64
2023/12/23 01:18:25;;;;;;;5.43;1.30;;;10.30;99.90;;;;;;5051623;28;20241;-64
2023/12/23 01:20:52;;;;;;;3.53;1.47;;;10.30;99.90;;;;;;5050908;28;20212;-64
2023/12/23 01:23:19;;;;;;;4.07;1.30;;;10.30;99.90;;;;;;5051334;28;20220;-64
2023/12/23 01:25:45;;;;;;;3.23;1.10;;;10.30;99.90;;;;;;5051187;28;20217;-64
2023/12/23 01:28:13;;;;;;;3.60;1.20;;;10.30;99.90;;;;;;5051135;28;20209;-65
2023/12/23 01:30:40;;;;;;;4.40;1.20;;;10.30;99.90;;;;;;5051269;28;20259;-65
2023/12/23 01:33:07;;;;;;;2.70;0.90;;;10.30;99.90;;;;;;5051304;28;20236;-65
2023/12/23 01:35:34;;;;;;;4.80;1.53;;;10.20;99.90;;;;;;5051167;28;20229;-65
2023/12/23 01:38:01;;;;;;;4.13;1.03;;;10.20;99.90;;;;;;5050861;28;20735;-65
2023/12/23 01:40:28;;;;;;;1.70;0.70;;;10.20;99.90;;;;;;5050724;28;20267;-64
2023/12/23 01:42:54;;;;;;;3.87;1.30;;;10.20;99.90;;;;;;5050777;28;20675;-64
2023/12/23 01:45:23;;;;;;;2.40;0.93;;;10.20;99.90;;;;;;5050785;28;20764;-64
2023/12/23 01:47:51;;;;;;;2.20;1.03;;;10.30;99.90;;;;;;5050981;28;20580;-65
2023/12/23 01:50:21;;;;;;;2.23;0.80;;;10.20;99.90;;;;;;5035119;28;20687;-64
2023/12/23 01:52:48;;;;;;;4.97;1.40;;;10.20;99.90;;;;;;5050857;28;20210;-65
2023/12/23 01:55:15;;;;;;;3.87;1.10;;;10.20;99.90;;;;;;5050663;28;20228;-65
2023/12/23 01:57:42;;;;;;;4.93;1.10;;;10.20;99.90;;;;;;5051246;28;20209;-65
2023/12/23 02:00:10;;;;;;;5.23;1.43;;;10.20;99.90;;;;;;5050918;28;20229;-65
2023/12/23 02:02:40;;;;;;;4.63;1.47;;;10.30;99.90;;;;;;5050788;28;20209;-65
2023/12/23 02:05:07;;;;;;;2.90;1.00;;;10.30;99.90;;;;;;5050601;28;20232;-65
2023/12/23 02:07:33;;;;;;;2.37;1.27;;;10.30;99.90;;;;;;5050818;28;20292;-65
2023/12/23 02:10:00;;;;;;;5.97;1.90;;;10.30;99.90;;;;;;5050726;28;20244;-65
2023/12/23 02:12:35;;;;;;;4.90;1.57;;;10.30;99.90;;;;;;5050657;28;20206;-65
2023/12/23 02:15:06;;;;;;;6.17;1.40;;;10.30;99.90;;;;;;5050464;28;20225;-65
2023/12/23 02:17:32;;;;;;;4.53;1.30;;;10.20;99.90;;;;;;5050695;28;20209;-65
2023/12/23 02:20:01;;;;;;;4.33;1.30;;;10.20;99.90;;;;;;5050357;28;20212;-65
2023/12/23 02:22:29;;;;;;;4.57;1.50;;;10.20;99.90;;;;;;5050507;28;20201;-65
2023/12/23 02:24:55;;;;;;;3.40;1.13;;;10.20;99.90;;;;;;5050666;28;20229;-65
2023/12/23 02:27:29;;;;;;;4.43;1.63;;;10.20;99.90;;;;;;5052675;28;20218;-65
2023/12/23 02:29:56;;;;;;;3.10;1.40;;;10.30;99.90;;;;;;5054163;28;20217;-63
2023/12/23 02:32:25;;;;;;;4.73;1.47;;;10.40;99.90;;;;;;5054342;28;20209;-64
2023/12/23 02:34:53;;;;;;;6.63;2.00;;;10.30;99.90;;;;;;5054020;28;20273;-63
2023/12/23 02:37:20;;;;;;;4.83;1.27;;;10.30;99.90;;;;;;5038595;28;20213;-64
2023/12/23 02:39:48;;;;;;;4.60;1.60;;;10.20;99.90;;;;;;5054248;28;20255;-64
2023/12/23 02:42:14;;;;;;;4.70;1.30;;;10.10;99.90;;;;;;5054198;28;20267;-64
2023/12/23 02:44:41;;;;;;;7.13;1.40;;;10.20;99.90;;;;;;5053957;28;20763;-64
2023/12/23 02:47:08;;;;;;;3.07;1.00;;;10.20;99.90;;;;;;5053729;28;20667;-64
2023/12/23 02:49:34;;;;;;;4.43;1.50;;;10.30;99.90;;;;;;5054051;28;20591;-64
2023/12/23 02:52:01;;;;;;;4.00;1.20;;;10.30;99.90;;;;;;5053981;28;20205;-64
2023/12/23 02:54:28;;;;;;;3.73;1.00;;;10.40;99.90;;;;;;5053665;28;20225;-64
2023/12/23 02:56:56;;;;;;;5.30;1.50;;;10.50;99.90;;;;;;5053652;28;20786;-64
2023/12/23 02:59:22;;;;;;;3.73;1.53;;;10.40;99.90;;;;;;5053833;28;20202;-64
2023/12/23 03:01:49;;;;;;;4.37;1.17;;;10.40;99.90;;;;;;5053535;28;20206;-64
2023/12/23 03:04:16;;;;;;;3.50;1.33;;;10.40;99.90;;;;;;5053699;28;20221;-63
2023/12/23 03:06:42;;;;;;;4.97;1.47;;;10.50;99.90;;;;;;5053941;28;20205;-64
2023/12/23 03:09:09;;;;;;;3.97;1.50;;;10.50;99.90;;;;;;5053537;28;20239;-63
2023/12/23 03:11:37;;;;;;;5.07;1.50;;;10.40;99.90;;;;;;5053357;28;20253;-63
2023/12/23 03:14:05;;;;;;;5.67;1.70;;;10.40;99.90;;;;;;5053178;28;20324;-63
2023/12/23 03:16:35;;;;;;;4.80;1.77;;;10.40;99.90;;;;;;5053539;28;20221;-63
2023/12/23 03:19:02;;;;;;;3.57;1.30;;;10.40;99.90;;;;;;5053477;28;20597;-64
2023/12/23 03:21:29;;;;;;;3.60;1.47;;;10.40;99.90;;;;;;5053441;28;20206;-64
2023/12/23 03:23:56;;;;;;;3.30;1.10;;;10.40;99.90;;;;;;5053041;28;20229;-64
2023/12/23 03:26:22;;;;;;;5.40;1.40;;;10.50;99.90;;;;;;5053283;28;20213;-64
2023/12/23 03:28:49;;;;;;;6.93;1.20;;;10.50;99.90;;;;;;5053113;28;20209;-64
2023/12/23 03:31:17;;;;;;;5.60;1.70;;;10.50;99.90;;;;;;5053101;28;20252;-64
2023/12/23 03:33:44;;;;;;;6.43;1.37;;;10.50;99.90;;;;;;5052878;28;20626;-64
2023/12/23 03:36:10;;;;;;;2.97;1.40;;;10.40;99.90;;;;;;5052987;28;20221;-64
2023/12/23 03:38:36;;;;;;;3.07;1.30;;;10.40;99.90;;;;;;5051965;28;20559;-64
2023/12/23 03:41:03;;;;;;;4.67;1.47;;;10.30;99.90;;;;;;5052885;28;20216;-64
2023/12/23 03:43:30;;;;;;;5.50;1.10;;;10.30;99.90;;;;;;5052989;28;20201;-63
2023/12/23 03:45:57;;;;;;;4.17;1.10;;;10.30;99.90;;;;;;5053053;28;20221;-63
2023/12/23 03:48:26;;;;;;;4.03;1.20;;;10.30;99.90;;;;;;5052871;28;20206;-63
2023/12/23 03:50:52;;;;;;;4.77;2.00;;;10.40;99.90;;;;;;5052743;28;20205;-65
2023/12/23 03:53:19;;;;;;;4.77;1.07;;;10.40;99.90;;;;;;5052549;28;20201;-64
2023/12/23 03:55:45;;;;;;;4.73;1.40;;;10.40;99.90;;;;;;5052507;28;20263;-64
2023/12/23 03:58:12;;;;;;;5.13;1.20;;;10.40;99.90;;;;;;5053098;28;20209;-64
2023/12/23 04:00:39;;;;;;;5.73;1.40;;;10.40;99.90;;;;;;5052590;28;20239;-63
2023/12/23 04:03:05;;;;;;;2.17;1.30;;;10.50;99.90;;;;;;5052466;28;20209;-63
2023/12/23 04:05:33;;;;;;;6.13;1.60;;;10.50;99.90;;;;;;5052659;28;20225;-63
2023/12/23 04:08:00;;;;;;;5.53;1.83;;;10.50;99.90;;;;;;5052501;28;20229;-63
2023/12/23 04:10:27;;;;;;;3.53;1.20;;;10.40;99.90;;;;;;5052109;28;20703;-65
2023/12/23 04:12:54;;;;;;;4.80;1.33;;;10.40;99.90;;;;;;5052421;28;20674;-64
2023/12/23 04:15:20;;;;;;;3.73;1.07;;;10.30;99.90;;;;;;5068680;22;20275;-58
2023/12/23 04:17:47;;;;;;;2.70;1.13;;;10.40;99.90;;;;;;5043815;28;20772;-57
2023/12/23 04:20:14;;;;;;;2.47;1.33;;;10.40;99.90;;;;;;5041052;28;20213;-58
2023/12/23 04:22:44;;;;;;;2.23;1.00;;;10.30;99.90;;;;;;5040258;28;20222;-58
2023/12/23 04:25:11;;;;;;;2.97;1.10;;;10.30;99.90;;;;;;5050750;28;20225;-59
2023/12/23 04:27:37;;;;;;;3.20;0.93;;;10.30;99.90;;;;;;5051992;28;20202;-59
2023/12/23 04:30:05;;;;;;;4.73;1.30;;;10.40;99.90;;;;;;5051925;28;20213;-58
2023/12/23 04:32:32;;;;;;;4.03;1.30;;;10.40;99.90;;;;;;5051602;28;20205;-57
2023/12/23 04:34:59;;;;;;;3.60;1.30;;;10.50;99.90;;;;;;5051700;28;20225;-57
2023/12/23 04:37:26;;;;;;;4.23;1.27;;;10.50;99.90;;;;;;5051741;28;20213;-59
2023/12/23 04:39:54;;;;;;;2.57;1.07;;;10.50;99.90;;;;;;5051447;28;20671;-57
2023/12/23 04:42:21;;;;;;;4.93;0.93;;;10.50;99.90;;;;;;5051669;28;20201;-58
2023/12/23 04:44:48;;;;;;;5.77;1.40;;;10.50;99.90;;;;;;5051355;28;20234;-57
2023/12/23 04:47:15;;;;;;;3.57;1.10;;;10.60;99.90;;;;;;5051554;28;20326;-58
2023/12/23 04:49:42;;;;;;;4.50;1.17;;;10.60;99.90;;;;;;5051223;28;20717;-60
2023/12/23 04:52:08;;;;;;;2.87;0.90;;;10.60;99.90;;;;;;5051063;28;20214;-58
2023/12/23 04:54:35;;;;;;;3.43;1.20;;;10.70;99.90;;;;;;5051527;28;20233;-58
2023/12/23 04:57:03;;;;;;;2.20;1.00;;;10.70;99.90;;;;;;5051482;28;20217;-58
2023/12/23 04:59:30;;;;;;;1.47;0.77;;;10.70;99.90;;;;;;5051570;28;20729;-58
2023/12/23 05:01:56;;;;;;;2.03;0.90;;;10.80;99.90;;;;;;5051151;28;20686;-59
2023/12/23 05:04:23;;;;;;;2.33;0.80;;;10.90;99.90;;;;;;5035039;28;20612;-59
2023/12/23 05:06:50;;;;;;;3.07;1.07;;;11.00;99.90;;;;;;5051178;28;20228;-58
2023/12/23 05:09:16;;;;;;;1.93;0.77;;;11.00;99.90;;;;;;5051181;28;20573;-58
2023/12/23 05:11:43;;;;;;;1.00;0.60;;;11.10;99.90;;;;;;5051032;28;20291;-58
2023/12/23 05:14:11;;;;;;;3.97;1.07;;;11.10;99.90;;;;;;5051181;28;20209;-58
2023/12/23 05:16:38;;;;;;;2.60;0.63;;;11.10;99.90;;;;;;5050967;28;20608;-58
2023/12/23 05:19:04;;;;;;;2.13;0.93;;;11.10;99.90;;;;;;5051019;28;20205;-60
2023/12/23 05:21:31;;;;;;;2.87;0.90;;;11.10;99.90;;;;;;5050701;28;20201;-59
2023/12/23 05:23:58;;;;;;;2.13;0.90;;;11.10;99.90;;;;;;5051077;28;20217;-58
2023/12/23 05:26:24;;;;;;;2.90;0.80;;;11.00;99.90;;;;;;5051285;28;20202;-58
2023/12/23 05:28:51;;;;;;;2.47;0.87;;;11.00;99.90;;;;;;5051094;28;20201;-58
2023/12/23 05:31:19;;;;;;;1.83;0.80;;;11.00;99.90;;;;;;5050642;28;20263;-57
2023/12/23 05:33:47;;;;;;;2.10;0.80;;;11.10;99.90;;;;;;5050562;28;20210;-57
2023/12/23 05:36:13;;;;;;;2.93;0.90;;;11.10;99.90;;;;;;5050825;28;20225;-58
2023/12/23 05:38:40;;;;;;;1.23;0.60;;;11.10;99.90;;;;;;5050874;28;20272;-58
2023/12/23 05:41:08;;;;;;;1.63;0.97;;;11.10;99.90;;;;;;5050628;28;20271;-57
2023/12/23 05:43:35;;;;;;;2.23;0.90;;;11.10;99.90;;;;;;5050884;28;20206;-59
2023/12/23 05:46:02;;;;;;;2.50;1.00;;;11.20;99.90;;;;;;5050800;28;20230;-59
2023/12/23 05:48:30;;;;;;;2.23;0.80;;;11.30;99.90;;;;;;5050791;28;20205;-58
2023/12/23 05:50:56;;;;;;;1.27;0.40;;;11.30;99.90;;;;;;5050783;28;20437;-58
2023/12/23 05:53:23;;;;;;;2.97;0.50;;;11.30;99.90;;;;;;5051089;28;20206;-58
2023/12/23 05:55:50;;;;;;;2.13;0.70;;;11.30;99.90;;;;;;5050585;28;20256;-57
2023/12/23 05:58:17;;;;;;;2.00;0.53;;;11.30;99.90;;;;;;5050388;28;20234;-59
2023/12/23 06:00:43;;;;;;;2.40;0.87;;;11.20;99.90;;;;;;5050251;28;20583;-60
2023/12/23 06:03:10;;;;;;;0.43;0.30;;;11.30;99.90;;;;;;5053781;28;20228;-59
2023/12/23 06:05:38;;;;;;;2.00;0.73;;;11.30;99.90;;;;;;5054652;28;20730;-56
2023/12/23 06:08:06;;;;;;;1.90;0.80;;;11.10;99.90;;;;;;5054488;28;20293;-57
2023/12/23 06:10:33;;;;;;;0.70;0.40;;;11.00;99.90;;;;;;5054255;28;20268;-57
2023/12/23 06:12:59;;;;;;;1.53;0.50;;;11.00;99.90;;;;;;5053840;28;20217;-59
2023/12/23 06:15:26;;;;;;;0.53;0.37;;;10.90;99.90;;;;;;5053987;28;20229;-58
2023/12/23 06:17:53;;;;;;;1.50;0.60;;;10.90;99.90;;;;;;5054303;28;20255;-58
2023/12/23 06:20:19;;;;;;;1.07;0.50;;;11.00;99.90;;;;;;5054206;28;20240;-60
2023/12/23 06:22:47;;;;;;;1.70;0.47;;;10.90;99.90;;;;;;5053892;28;20573;-58
2023/12/23 06:25:14;;;;;;;0.70;0.40;;;10.80;99.90;;;;;;5054153;28;20334;-57
2023/12/23 06:27:41;;;;;;;1.20;0.37;;;10.80;99.90;;;;;;5054460;28;20206;-58
2023/12/23 06:30:09;;;;;;;2.93;0.60;;;10.90;99.90;;;;;;5053921;28;20292;-58
2023/12/23 06:32:35;;;;;;;1.20;0.60;;;10.90;99.90;;;;;;5054251;28;20206;-57
2023/12/23 06:35:02;;;;;;;0.77;0.20;;;11.00;99.90;;;;;;5053900;28;20231;-60
2023/12/23 06:37:29;;;;;;;0.70;0.50;;;11.00;99.90;;;;;;5054358;28;20232;-57
2023/12/23 06:39:59;;;;;;;0.30;0.20;;;11.10;99.90;;;;;;5054007;28;20232;-58
2023/12/23 06:42:26;;;;;;;1.17;0.30;;;11.20;99.90;;;;;;5038093;28;20210;-59
2023/12/23 06:44:53;;;;;;;1.00;0.23;;;11.30;99.90;;;;;;5053683;28;20233;-58
2023/12/23 06:47:19;;;;;;;0.30;0.30;;;11.30;99.90;;;;;;5054088;28;20202;-58
2023/12/23 06:49:46;;;;;;;0.30;0.20;;;11.30;99.90;;;;;;5054178;28;20227;-61
2023/12/23 06:52:13;;;;;;;0.10;0.10;;;11.20;99.90;;;;;;5053654;28;20210;-59
2023/12/23 06:54:40;;;;;;;0.53;0.20;;;11.20;99.90;;;;;;5053595;28;20312;-58
2023/12/23 06:57:08;;;;;;;0.40;0.10;;;11.20;99.90;;;;;;5053726;28;20225;-59
2023/12/23 06:59:35;;;;;;;1.17;0.30;;;11.10;99.90;;;;;;5054216;28;20266;-58
2023/12/23 07:02:02;;;;;;;1.07;0.60;;;11.10;99.90;;;;;;5053752;28;20206;-57
2023/12/23 07:04:28;;;;;;;0.73;0.50;;;11.10;99.90;;;;;;5053645;28;20707;-59
2023/12/23 07:06:55;;;;;;;1.50;0.20;;;11.10;99.90;;;;;;5053840;28;20206;-57
2023/12/23 07:09:21;;;;;;;0.27;0.20;;;11.00;99.90;;;;;;5053801;28;20201;-57
2023/12/23 07:11:48;;;;;;;0.87;0.23;;;11.00;99.90;;;;;;5053348;28;20643;-57
2023/12/23 07:14:16;;;;;;;1.10;0.33;;;11.00;99.90;;;;;;5053200;28;20706;-57
2023/12/23 07:16:43;;;;;;;0.30;0.30;;;11.00;99.90;;;;;;5054029;28;20206;-57
2023/12/23 07:19:10;;;;;;;0.50;0.20;;;10.90;99.90;;;;;;5054632;28;20620;-57
2023/12/23 07:21:37;;;;;;;1.13;0.37;;;10.90;99.90;;;;;;5054293;28;20227;-58
2023/12/23 07:24:04;;;;;;;0.40;0.20;;;10.90;99.90;;;;;;5053725;28;20209;-57
2023/12/23 07:26:34;;;;;;;0.40;0.30;;;10.90;99.90;;;;;;5054088;28;20209;-57
2023/12/23 07:29:01;;;;;;;0.47;0.30;;;10.90;99.90;;;;;;5053239;28;20267;-60
2023/12/23 07:31:32;;;;;;;0.10;0.10;;;10.80;99.90;;;;;;5053221;28;20213;-56
2023/12/23 07:33:58;;;;;;;0.63;0.33;;;10.70;99.90;;;;;;5053083;28;20746;-57
2023/12/23 07:36:25;;;;;;;2.33;0.30;;;10.70;99.90;;;;;;5053158;28;20202;-57
2023/12/23 07:38:51;;;;;;;1.43;0.33;;;10.70;99.90;;;;;;5052730;28;20233;-56
2023/12/23 07:41:17;;;;;;;0.87;0.20;;;10.80;99.90;;;;;;5052903;28;20209;-56
2023/12/23 07:43:44;;;;;;;0.63;0.20;;;10.80;99.90;;;;;;5052768;28;20238;-57
2023/12/23 07:46:12;;;;;;;1.37;0.20;;;10.80;99.90;;;;;;5052702;28;20275;-55
2023/12/23 07:48:40;;;;;;;0.20;0.10;;;10.60;99.90;;;;;;5052888;28;20205;-56
2023/12/23 07:51:07;;;;;;;0.57;0.20;;;10.50;99.90;;;;;;5052649;28;20205;-56
2023/12/23 07:53:34;;;;;;;0.63;0.30;;;10.50;99.90;;;;;;5052496;28;20296;-56
2023/12/23 07:56:01;;;;;;;0.97;0.40;;;10.50;99.90;;;;;;5052770;28;20244;-56
2023/12/23 07:58:27;;;;;;;1.60;0.40;;;10.40;99.90;;;;;;5036248;28;20221;-58
2023/12/23 08:00:55;;;;;;;0.20;0.10;;;10.50;99.90;;;;;;5052748;28;20202;-56
2023/12/23 08:03:22;;;;;;;0.60;0.20;;;10.40;99.90;;;;;;5052394;28;20209;-58
2023/12/23 08:05:49;;;;;;;1.50;0.40;;;10.40;99.90;;;;;;5052332;28;20641;-56
2023/12/23 08:08:16;;;;;;;0.20;0.20;;;10.40;99.90;;;;;;5052710;28;20669;-57
2023/12/23 08:10:43;;;;;;;0.20;0.10;;;10.40;99.90;;;;;;5052431;28;20591;-57
2023/12/23 08:13:10;;;;;;;0.20;0.10;;;10.50;99.90;;;;;;5051943;28;20605;-56
2023/12/23 08:15:36;;;;;;;0.93;0.20;;;10.50;99.90;;;;;;5052260;28;20717;-57
2023/12/23 08:18:04;;;;;;;0.30;0.10;;;10.50;99.90;;;;;;5052277;28;20292;-57
2023/12/23 08:20:30;;;;;;;1.73;0.20;;;10.50;99.90;;;;;;5052220;28;20301;-58
2023/12/23 08:22:58;;;;;;;0.33;0.10;;;10.60;99.90;;;;;;5052294;28;20292;-55
2023/12/23 08:25:25;;;;;;;0.57;0.20;;;10.70;99.90;;;;;;5051476;28;20218;-56
2023/12/23 08:27:51;;;;;;;1.40;0.30;;;10.70;99.90;;;;;;5051899;28;20212;-56
2023/12/23 08:30:19;;;;;;;0.27;0.20;;;10.70;99.90;;;;;;5051715;28;20205;-57
2023/12/23 08:32:46;;;;;;;0.10;0.10;;;10.70;99.90;;;;;;5051977;28;20237;-59
2023/12/23 08:35:14;;;;;;;0.70;0.60;;;10.70;99.90;;;;;;5051503;28;20250;-56
2023/12/23 08:37:40;;;;;;;0.53;0.23;;;10.70;99.90;;;;;;5051780;28;20222;-56
2023/12/23 08:40:10;;;;;;;1.43;0.30;;;10.80;99.90;;;;;;5051505;28;20212;-56
2023/12/23 08:42:37;;;;;;;1.57;0.77;;;10.80;99.90;;;;;;5051816;28;20671;-56
2023/12/23 08:45:04;;;;;;;0.10;0.10;;;10.80;99.90;;;;;;5051491;28;20706;-59
2023/12/23 08:47:31;;;;;;;0.10;0.10;;;10.80;99.90;;;;;;5051764;28;20204;-54
2023/12/23 08:49:57;;;;;;;0.40;0.30;;;10.80;99.90;;;;;;5051710;28;20221;-55
2023/12/23 08:52:24;;;;;;;0.23;0.20;;;10.80;99.90;;;;;;5051780;28;20205;-55
2023/12/23 08:54:51;;;;;;;0.57;0.20;;;10.90;99.90;;;;;;5051594;28;20229;-56
2023/12/23 08:57:19;;;;;;;0.83;0.43;;;10.90;99.90;;;;;;5051257;28;20225;-55
2023/12/23 08:59:45;;;;;;;0.63;0.20;;;10.90;99.90;;;;;;5052013;28;20260;-56
2023/12/23 09:02:12;;;;;;;0.53;0.30;;;10.90;99.90;;;;;;5051794;28;20212;-55
2023/12/23 09:04:39;;;;;;;0.43;0.30;;;10.90;99.90;;;;;;5051441;28;20229;-57
2023/12/23 09:07:08;;;;;;;0.60;0.20;;;10.90;99.90;;;;;;5051446;28;20209;-56
2023/12/23 09:09:34;;;;;;;0.40;0.23;;;10.90;99.90;;;;;;5051195;28;20217;-56
2023/12/23 09:12:01;;;;;;;1.73;1.03;;;11.00;99.90;;;;;;5051075;28;20206;-57
2023/12/23 09:14:30;;;;;;;1.07;0.30;;;11.00;99.90;;;;;;5050959;28;20229;-55
2023/12/23 09:16:56;;;;;;;0.40;0.30;;;11.10;99.90;;;;;;5050992;28;20300;-55
2023/12/23 09:19:23;;;;;;;0.30;0.30;;;11.10;99.90;;;;;;5051154;28;20259;-58
2023/12/23 09:21:49;;;;;;;0.17;0.17;;;11.20;99.90;;;;;;5051102;28;20248;-56
2023/12/23 09:24:16;;;;;;;0.97;0.30;;;11.10;99.90;;;;;;5051038;28;20290;-56
2023/12/23 09:26:43;;;;;;;0.17;0.10;;;11.10;99.90;;;;;;5051395;28;20205;-55
2023/12/23 09:29:10;;;;;;;0.80;0.57;;;11.10;99.90;;;;;;5050948;28;20205;-55
2023/12/23 09:31:38;;;;;;;0.60;0.30;;;11.00;99.90;;;;;;5051053;28;20209;-58
2023/12/23 09:34:05;;;;;;;0.20;0.20;;;11.00;99.90;;;;;;5050987;28;20220;-58
2023/12/23 09:36:32;;;;;;;0.40;0.30;;;11.00;99.90;;;;;;5050346;28;20205;-55
2023/12/23 09:38:58;;;;;;;0.20;0.20;;;11.10;99.90;;;;;;5050963;28;20228;-55
2023/12/23 09:41:25;;;;;;;0.33;0.27;;;11.20;99.90;;;;;;5051298;28;20217;-56
2023/12/23 09:43:53;;;;;;;0.00;0.00;;;11.20;99.90;;;;;;5050953;28;20209;-55
2023/12/23 09:46:20;;;;;;;0.27;0.10;;;11.10;99.90;;;;;;5051133;28;20217;-55
2023/12/23 09:48:49;;;;;;;2.10;0.73;;;11.10;99.90;;;;;;5051317;28;20240;-54
2023/12/23 09:51:17;;;;;;;0.27;0.20;;;11.10;99.90;;;;;;5050711;28;20306;-56
2023/12/23 09:53:47;;;;;;;0.33;0.17;;;11.00;99.90;;;;;;5050896;28;20670;-55
2023/12/23 09:56:15;;;;;;;0.33;0.23;;;11.00;99.90;;;;;;5050695;28;20706;-54
2023/12/23 09:58:44;;;;;;;0.30;0.30;;;11.10;99.90;;;;;;5050735;28;20232;-55
2023/12/23 10:01:10;;;;;;;0.10;0.10;;;11.20;99.90;;;;;;5050217;28;20206;-55
2023/12/23 10:03:37;;;;;;;0.13;0.13;;;11.10;99.90;;;;;;5050750;28;20217;-54
2023/12/23 10:06:07;;;;;;;0.50;0.23;;;11.10;99.90;;;;;;5050482;28;20303;-57
2023/12/23 10:08:32;;;;;;;0.40;0.20;;;11.10;99.90;;;;;;5035005;28;20224;-56
2023/12/23 10:10:59;;;;;;;0.20;0.10;;;11.10;99.90;;;;;;5050876;28;20651;-55
2023/12/23 10:13:26;;;;;;;0.47;0.10;;;11.10;99.90;;;;;;5050435;28;20210;-55
2023/12/23 10:15:53;;;;;;;0.67;0.30;;;11.20;99.90;;;;;;5059256;22;20225;-59
2023/12/23 10:18:19;;;;;;;0.10;0.10;;;11.20;99.90;;;;;;5039003;28;20645;-63
2023/12/23 10:20:46;;;;;;;1.30;0.10;;;11.20;99.90;;;;;;5041929;28;20841;-58
2023/12/23 10:23:14;;;;;;;0.30;0.20;;;11.30;99.90;;;;;;5041073;28;20210;-58
2023/12/23 10:25:41;;;;;;;0.20;0.10;;;11.40;99.90;;;;;;5043838;28;20268;-61
2023/12/23 10:28:09;;;;;;;7.60;6.80;;;11.40;99.90;;;;;;5049860;28;20197;-63
2023/12/23 10:30:39;;;;;;;0.50;0.43;;;11.40;99.90;;;;;;5050434;28;20214;-63
2023/12/23 10:33:07;;;;;;;0.30;0.13;;;11.40;99.90;;;;;;5050454;28;20293;-62
2023/12/23 10:35:44;;;;;;;0.27;0.10;;;11.40;99.90;;;;;;5034471;28;20229;-61
2023/12/23 10:38:14;;;;;;;0.20;0.13;;;11.40;99.90;;;;;;5049972;28;20225;-62
2023/12/23 10:40:44;;;;;;;0.20;0.20;;;11.30;99.90;;;;;;5050084;28;20697;-60
2023/12/23 10:43:13;;;;;;;0.20;0.10;;;11.30;99.90;;;;;;5050263;28;20206;-61
2023/12/23 10:45:42;;;;;;;0.10;0.10;;;11.30;99.90;;;;;;5050195;28;20719;-60
2023/12/23 10:48:10;;;;;;;0.53;0.27;;;11.30;99.90;;;;;;5051285;28;20293;-63
2023/12/23 10:50:37;;;;;;;0.97;0.40;;;11.30;99.90;;;;;;5053583;28;20214;-63
2023/12/23 10:53:06;;;;;;;1.00;0.63;;;11.30;99.90;;;;;;5053690;28;20679;-61
2023/12/23 10:55:36;;;;;;;2.43;1.73;;;11.30;99.90;;;;;;5037886;28;20250;-59
2023/12/23 10:58:07;;;;;;;0.93;0.53;;;11.20;99.90;;;;;;5053984;28;20232;-62
2023/12/23 11:00:36;;;;;;;0.17;0.17;;;11.20;99.90;;;;;;5037785;28;20308;-60
2023/12/23 11:03:04;;;;;;;0.33;0.20;;;11.10;99.90;;;;;;5053667;28;20210;-61
2023/12/23 11:05:32;;;;;;;0.10;0.10;;;11.10;99.90;;;;;;5053967;28;20221;-61
2023/12/23 11:08:03;;;;;;;0.70;0.30;;;11.10;99.90;;;;;;5053284;28;20225;-66
2023/12/23 11:10:30;;;;;;;1.57;0.30;;;11.20;99.90;;;;;;5053294;28;20300;-65
2023/12/23 11:12:58;;;;;;;0.20;0.20;;;11.20;99.90;;;;;;5053383;28;20624;-66
2023/12/23 11:15:26;;;;;;;0.50;0.20;;;11.20;99.90;;;;;;5052946;28;20306;-62
2023/12/23 11:17:54;;;;;;;0.47;0.30;;;11.20;99.90;;;;;;5053245;28;20217;-61
2023/12/23 11:20:47;;;;;;;0.60;0.40;;;11.30;99.90;;;;;;5053193;28;20232;-65
2023/12/23 11:23:38;;;;;;;0.30;0.20;;;11.40;99.90;;;;;;5053122;28;20304;-62
2023/12/23 11:26:05;;;;;;;0.57;0.40;;;11.40;99.90;;;;;;5033255;28;20280;-62
2023/12/23 11:28:36;;;;;;;0.50;0.20;;;11.40;99.90;;;;;;5052739;28;20209;-63
2023/12/23 11:31:04;;;;;;;0.20;0.20;;;11.40;99.90;;;;;;5052838;28;20206;-62
2023/12/23 11:33:34;;;;;;;2.03;0.50;;;11.40;99.90;;;;;;5053286;28;20205;-63
2023/12/23 11:36:02;;;;;;;1.90;0.20;;;11.40;99.90;;;;;;5053283;28;20774;-63
2023/12/23 11:38:30;;;;;;;0.23;0.10;;;11.30;99.90;;;;;;5052563;28;20229;-64
2023/12/23 11:40:57;;;;;;;0.70;0.60;;;11.20;99.90;;;;;;5052920;28;20205;-64
2023/12/23 11:43:24;;;;;;;0.20;0.20;;;11.20;99.90;;;;;;5052659;28;20206;-59
2023/12/23 11:45:51;;;;;;;0.63;0.30;;;11.30;99.90;;;;;;5052841;28;20221;-61
2023/12/23 11:48:20;;;;;;;1.90;0.80;;;11.30;99.90;;;;;;5052686;28;20198;-59
2023/12/23 11:50:47;;;;;;;0.60;0.20;;;11.20;99.90;;;;;;5052502;28;20669;-59
2023/12/23 11:53:15;;;;;;;0.50;0.20;;;11.10;99.90;;;;;;5052581;28;20205;-59
2023/12/23 11:55:42;;;;;;;0.13;0.13;;;11.10;99.90;;;;;;5052692;28;20232;-59
2023/12/23 11:58:10;;;;;;;0.50;0.13;;;11.00;99.90;;;;;;5052552;28;20206;-62
2023/12/23 12:00:38;;;;;;;0.40;0.20;;;11.10;99.90;;;;;;5043724;28;20596;-60
2023/12/23 12:03:09;;;;;;;0.50;0.47;;;11.20;99.90;;;;;;5044960;28;20567;-61
2023/12/23 12:05:37;;;;;;;0.63;0.40;;;11.20;99.90;;;;;;5035191;28;20279;-62
2023/12/23 12:08:04;;;;;;;0.13;0.13;;;11.20;99.90;;;;;;5052735;28;20197;-60
2023/12/23 12:10:30;;;;;;;1.37;0.73;;;11.30;99.90;;;;;;5052301;28;20255;-62
2023/12/23 12:12:57;;;;;;;0.10;0.10;;;11.40;99.90;;;;;;5052082;28;20220;-61
2023/12/23 12:15:24;;;;;;;0.10;0.10;;;11.50;99.90;;;;;;5051904;28;20236;-61
2023/12/23 12:17:52;;;;;;;0.30;0.20;;;11.40;99.90;;;;;;5051207;28;20206;-62
2023/12/23 12:20:19;;;;;;;2.13;1.53;;;11.40;99.90;;;;;;5052104;28;20228;-61
2023/12/23 12:22:49;;;;;;;0.67;0.50;;;11.40;99.90;;;;;;5051234;28;20638;-62
2023/12/23 12:25:16;;;;;;;0.97;0.40;;;11.50;99.90;;;;;;5052518;28;20217;-61
2023/12/23 12:27:43;;;;;;;0.10;0.10;;;11.50;99.90;;;;;;5051934;28;20699;-61
2023/12/23 12:30:11;;;;;;;0.60;0.20;;;11.40;99.90;;;;;;5051025;28;20228;-62
2023/12/23 12:32:43;;;;;;;0.10;0.10;;;11.40;99.90;;;;;;5036207;28;20718;-62
2023/12/23 12:35:11;;;;;;;0.17;0.13;;;11.30;99.90;;;;;;5048896;28;20261;-60
2023/12/23 12:37:38;;;;;;;0.10;0.03;;;11.30;99.90;;;;;;5035352;28;20710;-61
2023/12/23 12:40:10;;;;;;;0.33;0.30;;;11.30;99.90;;;;;;5051550;28;20725;-63
2023/12/23 12:42:37;;;;;;;1.07;0.70;;;11.30;99.90;;;;;;5036007;28;20630;-62
2023/12/23 12:45:05;;;;;;;0.70;0.20;;;11.40;99.90;;;;;;5051414;28;20733;-62
2023/12/23 12:47:32;;;;;;;0.20;0.20;;;11.40;99.90;;;;;;5046452;28;20692;-61